Time;durP1;ratioP1;P1;durP2;ratioP2;P2;SDS_P1;SDS_P2;PMS_P1;PMS_P2;Temp;Humidity;BMP_temperature;BMP_pressure;BME280_temperature;BME280_humidity;BME280_pressure;Samples;Min_cycle;Max_cycle;Signal;HPM_P1;HPM_P2
2023/05/23 00:01:36;;;;;;;61.77;27.50;;;15.40;99.90;;;;;;5073759;28;20234;-74
2023/05/23 00:04:02;;;;;;;57.27;26.87;;;15.40;99.90;;;;;;5074523;28;20666;-74
2023/05/23 00:06:28;;;;;;;57.27;27.70;;;15.50;99.90;;;;;;5075322;28;20553;-74
2023/05/23 00:08:55;;;;;;;56.07;28.43;;;15.50;99.90;;;;;;5074194;28;20269;-74
2023/05/23 00:11:25;;;;;;;55.93;27.47;;;15.70;99.90;;;;;;5075657;28;20187;-75
2023/05/23 00:13:52;;;;;;;51.00;26.87;;;15.70;99.90;;;;;;5073917;28;20214;-75
2023/05/23 00:16:18;;;;;;;53.50;25.10;;;15.60;99.90;;;;;;5074838;28;20616;-74
2023/05/23 00:18:44;;;;;;;54.93;24.60;;;15.40;99.90;;;;;;5073377;28;20167;-74
2023/05/23 00:21:12;;;;;;;43.87;23.93;;;15.30;99.90;;;;;;5074783;28;20628;-74
2023/05/23 00:23:41;;;;;;;53.00;24.73;;;15.20;99.90;;;;;;5075281;28;20174;-74
2023/05/23 00:26:10;;;;;;;48.67;23.70;;;15.20;99.90;;;;;;5073622;28;20213;-75
2023/05/23 00:28:39;;;;;;;50.03;23.10;;;15.30;99.90;;;;;;5074879;28;20167;-75
2023/05/23 00:31:06;;;;;;;46.47;24.27;;;15.20;99.90;;;;;;5074779;28;20181;-76
2023/05/23 00:33:33;;;;;;;52.13;24.03;;;15.30;99.90;;;;;;5074726;28;20254;-75
2023/05/23 00:35:59;;;;;;;47.40;22.27;;;15.30;99.90;;;;;;5075214;28;20179;-75
2023/05/23 00:38:25;;;;;;;43.60;22.90;;;15.30;99.90;;;;;;5074073;28;20181;-76
2023/05/23 00:40:51;;;;;;;46.80;23.83;;;15.40;99.90;;;;;;5073720;28;20175;-76
2023/05/23 00:43:18;;;;;;;44.57;23.83;;;15.40;99.90;;;;;;5074709;28;20166;-75
2023/05/23 00:45:47;;;;;;;48.40;24.03;;;15.40;99.90;;;;;;5074645;28;20220;-75
2023/05/23 00:48:14;;;;;;;47.27;25.03;;;15.40;99.90;;;;;;5073392;28;20540;-75
2023/05/23 00:50:40;;;;;;;52.00;24.80;;;15.50;99.90;;;;;;5073325;28;20176;-75
2023/05/23 00:53:08;;;;;;;43.37;23.60;;;15.50;99.90;;;;;;5073691;28;20178;-74
2023/05/23 00:55:34;;;;;;;50.83;25.00;;;15.60;99.90;;;;;;5073680;28;20244;-75
2023/05/23 00:58:01;;;;;;;57.80;25.53;;;15.60;99.90;;;;;;5073889;28;20182;-75
2023/05/23 01:00:29;;;;;;;57.00;27.07;;;15.60;99.90;;;;;;5074029;28;20164;-77
2023/05/23 01:02:55;;;;;;;51.37;25.67;;;15.50;99.90;;;;;;5072552;28;20704;-75
2023/05/23 01:05:23;;;;;;;50.13;26.17;;;15.60;99.90;;;;;;5074236;28;20172;-75
2023/05/23 01:07:50;;;;;;;56.23;27.43;;;15.60;99.90;;;;;;5074173;28;20151;-75
2023/05/23 01:10:20;;;;;;;57.10;28.07;;;15.70;99.90;;;;;;5073193;28;20233;-75
2023/05/23 01:13:21;;;;;;;52.27;25.27;;;15.70;99.90;;;;;;5074538;28;20171;-75
2023/05/23 01:16:01;;;;;;;45.17;24.93;;;15.50;99.90;;;;;;5070463;28;20268;-75
2023/05/23 01:18:49;;;;;;;53.10;28.20;;;15.40;99.90;;;;;;5072466;28;20182;-75
2023/05/23 01:21:17;;;;;;;52.73;26.13;;;15.50;99.90;;;;;;5073729;28;20161;-75
2023/05/23 01:23:46;;;;;;;51.97;25.40;;;15.40;99.90;;;;;;5073385;28;20269;-75
2023/05/23 01:26:25;;;;;;;48.27;23.57;;;15.30;99.90;;;;;;5072312;28;20291;-75
2023/05/23 01:28:55;;;;;;;48.00;24.43;;;15.30;99.90;;;;;;5073303;28;20175;-75
2023/05/23 01:31:22;;;;;;;43.97;23.10;;;15.40;99.90;;;;;;5071996;28;20453;-75
2023/05/23 01:33:49;;;;;;;44.63;23.23;;;15.40;99.90;;;;;;5072116;28;20645;-75
2023/05/23 01:36:16;;;;;;;45.30;23.83;;;15.50;99.90;;;;;;5072240;28;20198;-75
2023/05/23 01:38:42;;;;;;;40.60;22.37;;;15.60;99.90;;;;;;5072291;28;20214;-75
2023/05/23 01:41:07;;;;;;;40.83;20.40;;;15.60;99.90;;;;;;5073278;28;20159;-75
2023/05/23 01:43:34;;;;;;;29.20;20.27;;;15.70;99.90;;;;;;5071761;28;20266;-75
2023/05/23 01:46:01;;;;;;;40.00;22.33;;;15.60;99.90;;;;;;5073163;28;20178;-75
2023/05/23 01:48:28;;;;;;;39.00;20.57;;;15.60;99.90;;;;;;5073288;28;20643;-75
2023/05/23 01:50:55;;;;;;;43.47;23.23;;;15.60;99.90;;;;;;5073565;28;20636;-75
2023/05/23 01:53:22;;;;;;;39.10;21.03;;;15.80;99.90;;;;;;5073363;28;20201;-75
2023/05/23 01:55:48;;;;;;;35.50;20.30;;;15.90;99.90;;;;;;5071921;28;20213;-75
2023/05/23 01:58:15;;;;;;;39.53;21.50;;;15.80;99.90;;;;;;5072995;28;20630;-75
2023/05/23 02:00:40;;;;;;;37.40;20.87;;;15.80;99.90;;;;;;5072798;28;20167;-75
2023/05/23 02:03:06;;;;;;;32.37;20.40;;;15.70;99.90;;;;;;5071402;28;20174;-75
2023/05/23 02:05:32;;;;;;;33.80;19.50;;;15.60;99.90;;;;;;5072874;28;20166;-75
2023/05/23 02:07:57;;;;;;;29.10;19.30;;;15.70;99.90;;;;;;5072777;28;20174;-75
2023/05/23 02:10:23;;;;;;;34.63;20.27;;;15.60;99.90;;;;;;5072974;28;20173;-75
2023/05/23 02:12:48;;;;;;;32.93;20.23;;;15.60;99.90;;;;;;5072135;28;20198;-76
2023/05/23 02:15:16;;;;;;;28.30;18.77;;;15.60;99.90;;;;;;5072748;28;20221;-76
2023/05/23 02:17:41;;;;;;;32.10;19.43;;;15.80;99.90;;;;;;5072926;28;20183;-76
2023/05/23 02:20:08;;;;;;;32.70;20.17;;;15.80;99.90;;;;;;5071557;28;20221;-77
2023/05/23 02:22:34;;;;;;;34.67;19.60;;;15.90;99.90;;;;;;5072419;28;20632;-76
2023/05/23 02:25:00;;;;;;;29.50;19.33;;;16.00;99.90;;;;;;5072587;28;20196;-76
2023/05/23 02:27:28;;;;;;;27.00;16.97;;;15.80;99.90;;;;;;5071506;28;20522;-75
2023/05/23 02:29:53;;;;;;;28.53;18.03;;;15.90;99.90;;;;;;5071332;28;20545;-76
2023/05/23 02:32:20;;;;;;;24.90;15.80;;;15.80;99.90;;;;;;5072651;28;20155;-76
2023/05/23 02:34:49;;;;;;;23.50;16.57;;;15.70;99.90;;;;;;5072347;28;20202;-76
2023/05/23 02:37:15;;;;;;;28.07;15.60;;;15.80;99.90;;;;;;5071776;28;20171;-76
2023/05/23 02:39:42;;;;;;;29.13;15.73;;;15.80;99.90;;;;;;5072451;28;20312;-75
2023/05/23 02:42:08;;;;;;;20.77;13.83;;;15.80;99.90;;;;;;5072246;28;20263;-75
2023/05/23 02:44:33;;;;;;;20.10;13.63;;;15.50;99.90;;;;;;5072586;28;20189;-75
2023/05/23 02:46:59;;;;;;;25.43;14.90;;;15.40;99.90;;;;;;5072205;28;20169;-75
2023/05/23 02:49:25;;;;;;;21.17;12.70;;;15.40;99.90;;;;;;5072344;28;20523;-75
2023/05/23 02:51:50;;;;;;;24.60;15.90;;;15.50;99.90;;;;;;5072295;28;20170;-76
2023/05/23 02:54:16;;;;;;;30.30;15.33;;;15.60;99.90;;;;;;5072809;28;20217;-75
2023/05/23 02:56:43;;;;;;;26.63;15.23;;;15.60;99.90;;;;;;5072127;28;20170;-76
2023/05/23 02:59:08;;;;;;;26.60;15.70;;;15.60;99.90;;;;;;5052403;28;20290;-76
2023/05/23 03:01:34;;;;;;;27.30;15.53;;;15.50;99.90;;;;;;5067278;28;20209;-77
2023/05/23 03:04:00;;;;;;;30.00;15.83;;;15.50;99.90;;;;;;5071230;28;20171;-78
2023/05/23 03:06:26;;;;;;;29.93;16.07;;;15.50;99.90;;;;;;5072507;28;20685;-77
2023/05/23 03:08:53;;;;;;;30.33;15.67;;;15.50;99.90;;;;;;5070930;28;20183;-77
2023/05/23 03:11:18;;;;;;;31.23;16.40;;;15.40;99.90;;;;;;5071219;28;20198;-77
2023/05/23 03:13:44;;;;;;;28.70;16.83;;;15.40;99.90;;;;;;5071492;28;20540;-77
2023/05/23 03:16:11;;;;;;;29.00;16.73;;;15.50;99.90;;;;;;5072931;28;20190;-77
2023/05/23 03:18:37;;;;;;;27.20;16.60;;;15.40;99.90;;;;;;5071105;28;20164;-77
2023/05/23 03:21:03;;;;;;;29.30;17.23;;;15.20;99.90;;;;;;5072835;28;20183;-76
2023/05/23 03:23:28;;;;;;;36.33;19.10;;;15.00;99.90;;;;;;5072288;28;20245;-76
2023/05/23 03:25:54;;;;;;;35.13;19.70;;;15.10;99.90;;;;;;5073687;28;20182;-76
2023/05/23 03:28:20;;;;;;;36.87;18.73;;;15.00;99.90;;;;;;5075460;28;20201;-76
2023/05/23 03:30:46;;;;;;;37.03;20.60;;;15.00;99.90;;;;;;5076113;28;20176;-75
2023/05/23 03:33:12;;;;;;;36.80;20.73;;;14.90;99.90;;;;;;5074020;28;20208;-76
2023/05/23 03:35:38;;;;;;;37.67;21.27;;;14.90;99.90;;;;;;5074288;28;20737;-75
2023/05/23 03:38:04;;;;;;;38.33;21.17;;;14.90;99.90;;;;;;5075258;28;20179;-75
2023/05/23 03:40:29;;;;;;;35.77;21.37;;;15.00;99.90;;;;;;5073974;28;20684;-75
2023/05/23 03:43:03;;;;;;;40.47;22.90;;;15.10;99.90;;;;;;5073997;28;20174;-75
2023/05/23 03:45:30;;;;;;;41.73;24.00;;;15.00;99.90;;;;;;5075096;28;20163;-75
2023/05/23 03:47:57;;;;;;;48.17;24.37;;;15.00;99.90;;;;;;5075038;28;20525;-75
2023/05/23 03:50:23;;;;;;;43.23;24.53;;;15.10;99.90;;;;;;5075949;28;20217;-75
2023/05/23 03:52:48;;;;;;;44.93;24.90;;;15.10;99.90;;;;;;5075392;28;20156;-74
2023/05/23 03:55:15;;;;;;;47.13;26.10;;;15.10;99.90;;;;;;5075036;28;20212;-75
2023/05/23 03:57:40;;;;;;;41.40;25.10;;;15.10;99.90;;;;;;5073903;28;20394;-75
2023/05/23 04:00:08;;;;;;;46.27;26.57;;;15.00;99.90;;;;;;5075396;28;20197;-75
2023/05/23 04:02:34;;;;;;;42.63;26.23;;;14.90;99.90;;;;;;5075669;28;20154;-75
2023/05/23 04:05:00;;;;;;;33.73;22.47;;;15.00;99.90;;;;;;5075467;28;20178;-75
2023/05/23 04:07:26;;;;;;;33.80;19.77;;;14.90;99.90;;;;;;5074902;28;20175;-75
2023/05/23 04:09:51;;;;;;;34.00;18.97;;;14.80;99.90;;;;;;5075494;28;20174;-75
2023/05/23 04:12:18;;;;;;;33.37;17.23;;;14.80;99.90;;;;;;5073510;28;20175;-75
2023/05/23 04:14:43;;;;;;;23.00;13.53;;;14.90;99.90;;;;;;5073572;28;20198;-75
2023/05/23 04:17:10;;;;;;;27.13;15.50;;;14.90;99.90;;;;;;5074610;28;20174;-75
2023/05/23 04:19:36;;;;;;;22.50;14.80;;;14.90;99.90;;;;;;5074686;28;20601;-75
2023/05/23 04:22:02;;;;;;;21.13;13.03;;;14.90;99.90;;;;;;5073652;28;20221;-75
2023/05/23 04:24:27;;;;;;;23.13;13.13;;;15.00;99.90;;;;;;5074656;28;20191;-77
2023/05/23 04:26:55;;;;;;;28.80;13.10;;;15.10;99.90;;;;;;5057350;28;20628;-76
2023/05/23 04:29:20;;;;;;;23.37;12.70;;;15.10;99.90;;;;;;5073371;28;20543;-77
2023/05/23 04:31:46;;;;;;;22.63;13.13;;;15.10;99.90;;;;;;5075176;28;20240;-76
2023/05/23 04:34:12;;;;;;;18.77;12.57;;;15.10;99.90;;;;;;5075169;28;20203;-76
2023/05/23 04:36:37;;;;;;;19.73;12.43;;;15.20;99.90;;;;;;5073203;28;20680;-76
2023/05/23 04:39:05;;;;;;;23.87;12.83;;;15.30;99.90;;;;;;5073455;28;20174;-76
2023/05/23 04:41:31;;;;;;;19.27;12.33;;;15.40;99.90;;;;;;5074924;28;20179;-76
2023/05/23 04:43:57;;;;;;;22.63;12.50;;;15.40;99.90;;;;;;5073155;28;20289;-77
2023/05/23 04:46:25;;;;;;;25.47;13.37;;;15.40;99.90;;;;;;5073854;28;20185;-76
2023/05/23 04:48:55;;;;;;;18.03;12.47;;;15.30;99.90;;;;;;5073104;28;20693;-75
2023/05/23 04:51:20;;;;;;;18.13;12.33;;;15.40;99.90;;;;;;5074461;28;20174;-75
2023/05/23 04:53:48;;;;;;;17.20;12.20;;;15.50;99.90;;;;;;5074701;28;20155;-77
2023/05/23 04:56:16;;;;;;;22.67;12.53;;;15.60;99.90;;;;;;5073704;28;20182;-77
2023/05/23 04:58:44;;;;;;;20.20;11.40;;;15.70;99.90;;;;;;5072844;28;20648;-76
2023/05/23 05:01:10;;;;;;;20.57;11.70;;;15.70;99.90;;;;;;5072833;28;20619;-76
2023/05/23 05:03:37;;;;;;;17.40;11.50;;;15.70;99.90;;;;;;5073887;28;20588;-76
2023/05/23 05:06:03;;;;;;;21.93;13.63;;;15.60;99.90;;;;;;5073550;28;20179;-76
2023/05/23 05:08:28;;;;;;;26.47;17.30;;;15.80;99.90;;;;;;5075103;28;20179;-76
2023/05/23 05:10:54;;;;;;;25.47;16.77;;;15.80;99.90;;;;;;5074183;28;20266;-76
2023/05/23 05:13:20;;;;;;;26.87;16.63;;;15.70;99.90;;;;;;5074009;28;20252;-76
2023/05/23 05:15:46;;;;;;;26.43;16.40;;;15.70;99.90;;;;;;5072589;28;20206;-77
2023/05/23 05:18:12;;;;;;;28.63;16.00;;;15.60;99.90;;;;;;5074046;28;20604;-76
2023/05/23 05:20:38;;;;;;;24.37;16.10;;;15.60;99.90;;;;;;5073961;28;20163;-76
2023/05/23 05:23:04;;;;;;;22.80;14.63;;;15.70;99.90;;;;;;5071983;28;20228;-76
2023/05/23 05:25:35;;;;;;;25.97;14.20;;;15.60;99.90;;;;;;5073701;28;20195;-76
2023/05/23 05:28:04;;;;;;;25.03;14.50;;;15.50;99.90;;;;;;5072905;28;20171;-76
2023/05/23 05:30:35;;;;;;;26.50;13.30;;;15.40;99.90;;;;;;5074122;28;20155;-76
2023/05/23 05:33:04;;;;;;;24.63;13.27;;;15.40;99.90;;;;;;5073253;28;20297;-76
2023/05/23 05:35:33;;;;;;;25.40;13.00;;;15.30;99.90;;;;;;5073163;28;20198;-76
2023/05/23 05:38:03;;;;;;;25.73;13.47;;;15.40;99.90;;;;;;5073645;28;20244;-76
2023/05/23 05:40:32;;;;;;;26.10;12.63;;;15.30;99.90;;;;;;5072125;28;20166;-76
2023/05/23 05:42:57;;;;;;;24.47;12.50;;;15.30;99.90;;;;;;5073233;28;20621;-76
2023/05/23 05:45:23;;;;;;;24.57;12.73;;;15.40;99.90;;;;;;5072245;28;20301;-76
2023/05/23 05:47:48;;;;;;;27.20;12.40;;;15.40;99.90;;;;;;5072083;28;20182;-77
2023/05/23 05:50:14;;;;;;;27.87;12.20;;;15.50;99.90;;;;;;5073447;28;20169;-75
2023/05/23 05:52:41;;;;;;;25.87;11.67;;;15.40;99.90;;;;;;5072967;28;20174;-76
2023/05/23 05:55:10;;;;;;;23.37;11.50;;;15.40;99.90;;;;;;5072999;28;20197;-76
2023/05/23 05:57:39;;;;;;;29.13;11.43;;;15.30;99.90;;;;;;5072852;28;20171;-76
2023/05/23 06:00:14;;;;;;;24.60;11.13;;;15.20;99.90;;;;;;5072886;28;20199;-76
2023/05/23 06:02:45;;;;;;;30.83;11.03;;;15.20;99.90;;;;;;5073075;28;20531;-76
2023/05/23 06:05:11;;;;;;;33.10;12.23;;;15.20;99.90;;;;;;5072298;28;20221;-76
2023/05/23 06:07:41;;;;;;;27.03;11.13;;;15.20;99.90;;;;;;5072008;28;20527;-76
2023/05/23 06:10:07;;;;;;;31.40;13.07;;;15.20;99.90;;;;;;5072284;28;20173;-76
2023/05/23 06:12:34;;;;;;;27.27;11.80;;;15.30;99.90;;;;;;5071300;28;20627;-76
2023/05/23 06:15:00;;;;;;;33.50;12.67;;;15.20;99.90;;;;;;5073141;28;20199;-76
2023/05/23 06:17:25;;;;;;;28.50;12.83;;;15.20;99.90;;;;;;5072930;28;20184;-76
2023/05/23 06:19:51;;;;;;;35.43;12.43;;;15.10;99.90;;;;;;5072285;28;20280;-76
2023/05/23 06:22:17;;;;;;;30.23;12.47;;;14.90;99.90;;;;;;5072625;28;20169;-76
2023/05/23 06:24:43;;;;;;;34.60;11.80;;;14.90;99.90;;;;;;5052896;28;20263;-76
2023/05/23 06:27:08;;;;;;;34.60;13.80;;;14.80;99.90;;;;;;5051754;28;20250;-74
2023/05/23 06:29:37;;;;;;;32.87;12.40;;;14.80;99.90;;;;;;5053006;28;20602;-77
2023/05/23 06:32:02;;;;;;;25.43;12.07;;;14.70;99.90;;;;;;5052616;28;20185;-76
2023/05/23 06:34:29;;;;;;;21.00;10.87;;;14.70;99.90;;;;;;5068077;28;20202;-77
2023/05/23 06:36:55;;;;;;;28.10;11.23;;;14.70;99.90;;;;;;5060094;28;20158;-76
2023/05/23 06:39:20;;;;;;;23.97;10.57;;;14.80;99.90;;;;;;5072645;28;20594;-76
2023/05/23 06:41:47;;;;;;;23.87;10.13;;;14.90;99.90;;;;;;5069140;28;20586;-76
2023/05/23 06:44:13;;;;;;;25.13;11.30;;;14.90;99.90;;;;;;5072344;28;20175;-76
2023/05/23 06:46:39;;;;;;;24.40;10.67;;;15.00;99.90;;;;;;5072142;28;20255;-75
2023/05/23 06:49:05;;;;;;;22.27;10.20;;;15.00;99.90;;;;;;5072597;28;20579;-75
2023/05/23 06:51:31;;;;;;;17.07;10.00;;;15.20;99.90;;;;;;5070884;28;20177;-75
2023/05/23 06:53:57;;;;;;;19.33;9.13;;;15.40;99.90;;;;;;5072225;28;20650;-75
2023/05/23 06:56:24;;;;;;;21.47;9.20;;;15.40;99.90;;;;;;5072533;28;20165;-76
2023/05/23 06:58:51;;;;;;;19.70;10.03;;;15.40;99.90;;;;;;5071808;28;20166;-76
2023/05/23 07:01:17;;;;;;;24.03;9.57;;;15.60;99.90;;;;;;5076443;28;20181;-77
2023/05/23 07:03:44;;;;;;;15.80;7.67;;;15.70;99.90;;;;;;5075317;28;20167;-76
2023/05/23 07:06:10;;;;;;;15.87;7.73;;;15.80;99.90;;;;;;5076679;28;20645;-75
2023/05/23 07:08:42;;;;;;;16.67;7.70;;;15.70;99.90;;;;;;5067031;28;20647;-75
2023/05/23 07:11:08;;;;;;;20.73;7.50;;;15.50;99.90;;;;;;5063589;28;20179;-75
2023/05/23 07:13:35;;;;;;;17.30;6.17;;;15.70;99.90;;;;;;5075139;28;20491;-75
2023/05/23 07:16:01;;;;;;;27.90;7.37;;;15.60;99.90;;;;;;5076667;28;20568;-76
2023/05/23 07:18:26;;;;;;;19.97;7.43;;;15.70;99.90;;;;;;5075885;28;20164;-76
2023/05/23 07:20:53;;;;;;;21.70;7.63;;;15.60;99.90;;;;;;5073747;28;20531;-75
2023/05/23 07:23:23;;;;;;;15.87;7.50;;;15.80;99.90;;;;;;5074451;28;20167;-76
2023/05/23 07:25:48;;;;;;;20.23;7.50;;;15.90;99.90;;;;;;5075007;28;20207;-78
2023/05/23 07:28:15;;;;;;;20.13;7.60;;;15.90;99.90;;;;;;5076150;28;20152;-76
2023/05/23 07:30:43;;;;;;;17.23;7.43;;;15.90;99.90;;;;;;5074611;28;20197;-75
2023/05/23 07:33:11;;;;;;;17.03;7.40;;;16.00;99.90;;;;;;5075659;28;20257;-77
2023/05/23 07:35:38;;;;;;;13.13;6.60;;;16.00;99.90;;;;;;5074568;28;20663;-75
2023/05/23 07:38:05;;;;;;;13.17;6.80;;;16.00;99.90;;;;;;5076414;28;20517;-77
2023/05/23 07:40:31;;;;;;;15.97;6.20;;;15.70;99.90;;;;;;5075368;28;20170;-77
2023/05/23 07:42:59;;;;;;;12.80;5.80;;;15.80;99.90;;;;;;5074466;28;20160;-75
2023/05/23 07:45:26;;;;;;;16.73;5.97;;;16.10;99.90;;;;;;5073788;28;20175;-76
2023/05/23 07:47:54;;;;;;;20.30;7.20;;;16.30;99.90;;;;;;5075075;28;20163;-76
2023/05/23 07:50:21;;;;;;;16.70;6.83;;;16.50;99.90;;;;;;5075214;28;20163;-76
2023/05/23 07:52:53;;;;;;;17.87;7.63;;;16.80;99.90;;;;;;5075757;28;20166;-75
2023/05/23 07:55:21;;;;;;;18.63;7.33;;;16.50;99.90;;;;;;5075987;28;20206;-76
2023/05/23 07:57:46;;;;;;;15.07;7.17;;;16.30;99.90;;;;;;5074574;28;20190;-76
2023/05/23 08:00:13;;;;;;;16.83;7.37;;;16.40;99.90;;;;;;5074876;28;20148;-76
2023/05/23 08:02:39;;;;;;;26.90;8.90;;;16.30;99.90;;;;;;5075879;28;20162;-77
2023/05/23 08:05:05;;;;;;;17.87;8.47;;;16.30;99.90;;;;;;5075780;28;20167;-76
2023/05/23 08:07:32;;;;;;;16.07;8.43;;;16.20;99.90;;;;;;5074733;28;20513;-78
2023/05/23 08:09:58;;;;;;;21.40;8.40;;;15.90;99.90;;;;;;5075383;28;20206;-77
2023/05/23 08:12:25;;;;;;;21.70;9.00;;;16.00;99.90;;;;;;5072341;28;20190;-75
2023/05/23 08:14:50;;;;;;;16.37;8.13;;;16.10;99.90;;;;;;5073524;28;20191;-76
2023/05/23 08:17:17;;;;;;;15.77;8.10;;;16.20;99.90;;;;;;5073657;28;20220;-76
2023/05/23 08:19:46;;;;;;;20.10;7.93;;;16.40;99.90;;;;;;5073806;28;20515;-76
2023/05/23 08:22:13;;;;;;;18.30;7.37;;;16.30;99.90;;;;;;5073936;28;20158;-76
2023/05/23 08:24:38;;;;;;;22.50;8.63;;;16.50;99.90;;;;;;5074900;28;20660;-76
2023/05/23 08:27:06;;;;;;;17.43;8.40;;;16.50;99.90;;;;;;5075821;28;20177;-76
2023/05/23 08:29:34;;;;;;;20.27;8.43;;;16.40;99.90;;;;;;5072583;28;20175;-75
2023/05/23 08:32:02;;;;;;;17.63;8.40;;;16.50;99.90;;;;;;5069991;28;20632;-76
2023/05/23 08:34:33;;;;;;;21.17;8.77;;;16.30;99.90;;;;;;5074988;28;20197;-73
2023/05/23 08:37:01;;;;;;;19.67;8.40;;;16.40;99.90;;;;;;5073953;28;20170;-74
2023/05/23 08:39:27;;;;;;;18.70;8.43;;;16.50;99.90;;;;;;5072709;28;20156;-75
2023/05/23 08:41:53;;;;;;;16.27;7.87;;;16.50;99.90;;;;;;5073393;28;20165;-74
2023/05/23 08:44:20;;;;;;;17.30;7.03;;;16.60;99.90;;;;;;5073539;28;20159;-74
2023/05/23 08:46:47;;;;;;;17.07;8.17;;;16.60;99.90;;;;;;5073139;28;20222;-74
2023/05/23 08:49:16;;;;;;;13.00;6.13;;;16.70;99.90;;;;;;5072651;28;20169;-76
2023/05/23 08:51:43;;;;;;;20.30;6.43;;;16.90;99.90;;;;;;5072835;28;20251;-74
2023/05/23 08:54:12;;;;;;;17.90;7.03;;;16.90;99.90;;;;;;5072967;28;22124;-75
2023/05/23 08:56:38;;;;;;;23.10;7.00;;;16.80;99.90;;;;;;5074094;28;20520;-75
2023/05/23 08:59:05;;;;;;;11.97;6.50;;;16.80;99.90;;;;;;5072841;28;20284;-74
2023/05/23 09:01:32;;;;;;;16.07;5.70;;;16.90;99.90;;;;;;5072139;28;20682;-74
2023/05/23 09:04:03;;;;;;;17.47;7.87;;;17.00;99.90;;;;;;5074327;28;20509;-74
2023/05/23 09:06:29;;;;;;;15.07;8.57;;;17.40;99.90;;;;;;5073392;28;20175;-74
2023/05/23 09:08:55;;;;;;;18.83;7.90;;;17.50;99.90;;;;;;5069430;28;20647;-74
2023/05/23 09:11:23;;;;;;;18.70;8.47;;;17.70;99.90;;;;;;5063299;28;20582;-74
2023/05/23 09:13:49;;;;;;;13.93;7.73;;;17.60;99.90;;;;;;5073953;28;20241;-74
2023/05/23 09:16:16;;;;;;;16.47;7.67;;;17.80;99.90;;;;;;5072991;28;20259;-73
2023/05/23 09:18:43;;;;;;;17.97;7.37;;;17.60;99.90;;;;;;5073952;28;20172;-73
2023/05/23 09:21:10;;;;;;;21.43;7.33;;;17.40;99.90;;;;;;5073649;28;20649;-74
2023/05/23 09:23:39;;;;;;;19.67;7.30;;;17.20;99.90;;;;;;5074351;28;20684;-75
2023/05/23 09:26:10;;;;;;;13.27;6.87;;;17.20;99.90;;;;;;5072566;28;20210;-74
2023/05/23 09:28:38;;;;;;;15.10;6.43;;;17.30;99.90;;;;;;5072331;28;20527;-75
2023/05/23 09:31:07;;;;;;;14.37;6.40;;;17.40;99.90;;;;;;5072320;28;20177;-74
2023/05/23 09:33:48;;;;;;;22.53;7.10;;;17.50;99.90;;;;;;5072849;28;20185;-74
2023/05/23 09:36:15;;;;;;;11.80;5.80;;;18.00;99.90;;;;;;5073106;28;20657;-74
2023/05/23 09:38:46;;;;;;;17.70;6.87;;;18.40;99.90;;;;;;5072137;28;20173;-74
2023/05/23 09:41:12;;;;;;;12.23;5.43;;;18.70;99.90;;;;;;5072277;28;20227;-74
2023/05/23 09:43:52;;;;;;;14.53;6.47;;;18.70;99.90;;;;;;5073477;28;20230;-73
2023/05/23 09:46:20;;;;;;;17.53;8.60;;;18.40;99.90;;;;;;5073601;28;20249;-74
2023/05/23 09:48:52;;;;;;;14.80;8.30;;;18.10;99.90;;;;;;5073618;28;20164;-73
2023/05/23 09:51:22;;;;;;;13.70;7.90;;;17.80;99.90;;;;;;5073790;28;20168;-74
2023/05/23 09:53:51;;;;;;;16.00;8.33;;;17.70;99.90;;;;;;5072560;28;20257;-73
2023/05/23 09:56:18;;;;;;;14.80;8.17;;;17.60;99.90;;;;;;5072116;28;20173;-75
2023/05/23 09:58:49;;;;;;;15.60;8.27;;;17.40;99.90;;;;;;5072426;28;20179;-75
2023/05/23 10:01:16;;;;;;;15.73;8.37;;;17.20;99.90;;;;;;5073709;28;20540;-73
2023/05/23 10:03:47;;;;;;;18.07;7.53;;;17.20;99.90;;;;;;5073229;28;20152;-74
2023/05/23 10:06:27;;;;;;;11.50;5.77;;;17.20;99.90;;;;;;5071035;28;20275;-74
2023/05/23 10:09:01;;;;;;;10.97;4.73;;;17.30;99.90;;;;;;5072017;28;20161;-74
2023/05/23 10:11:32;;;;;;;9.13;5.47;;;17.30;99.90;;;;;;5070882;28;20244;-74
2023/05/23 10:14:06;;;;;;;16.10;5.97;;;17.50;99.90;;;;;;5072428;28;20168;-74
2023/05/23 10:17:05;;;;;;;10.37;5.57;;;17.80;99.90;;;;;;5072384;28;20608;-74
2023/05/23 10:19:46;;;;;;;13.17;5.93;;;18.20;99.90;;;;;;5071160;28;20167;-74
2023/05/23 10:22:13;;;;;;;12.33;4.60;;;18.60;99.90;;;;;;5071533;28;20166;-74
2023/05/23 10:24:39;;;;;;;9.20;4.60;;;18.80;99.90;;;;;;5071175;28;20186;-74
2023/05/23 10:27:06;;;;;;;9.30;4.60;;;19.00;99.90;;;;;;5070893;28;20250;-74
2023/05/23 10:29:33;;;;;;;11.60;5.23;;;19.00;99.90;;;;;;5071429;28;20173;-73
2023/05/23 10:32:01;;;;;;;8.33;3.70;;;19.30;99.90;;;;;;5072403;28;20170;-74
2023/05/23 10:34:51;;;;;;;8.47;2.57;;;19.30;99.90;;;;;;5070940;28;20206;-74
2023/05/23 10:37:26;;;;;;;5.23;2.50;;;19.10;99.90;;;;;;5070959;28;20185;-74
2023/05/23 10:39:58;;;;;;;3.83;1.93;;;19.40;99.90;;;;;;5071254;28;20170;-74
2023/05/23 10:43:00;;;;;;;3.20;2.20;;;19.50;99.90;;;;;;5071391;28;20163;-75
2023/05/23 10:45:26;;;;;;;3.17;1.90;;;19.30;99.90;;;;;;5072823;28;20185;-74
2023/05/23 10:47:52;;;;;;;7.10;2.30;;;19.20;99.90;;;;;;5071010;28;20179;-74
2023/05/23 10:50:32;;;;;;;3.97;2.00;;;19.20;99.90;;;;;;5071378;28;20182;-73
2023/05/23 10:53:03;;;;;;;6.00;2.17;;;19.10;99.90;;;;;;5070943;28;20166;-74
2023/05/23 10:55:34;;;;;;;7.43;2.57;;;19.20;99.90;;;;;;5072542;28;20182;-74
2023/05/23 10:58:19;;;;;;;10.97;3.20;;;19.30;99.90;;;;;;5072459;28;20170;-74
2023/05/23 11:00:52;;;;;;;7.87;2.33;;;19.30;99.90;;;;;;5072314;28;20170;-74
2023/05/23 11:03:18;;;;;;;7.37;2.87;;;19.40;99.90;;;;;;5072446;28;20542;-75
2023/05/23 11:05:52;;;;;;;6.63;2.40;;;19.50;99.90;;;;;;5072424;28;20250;-74
2023/05/23 11:08:19;;;;;;;6.03;2.40;;;19.60;99.90;;;;;;5072474;28;20147;-74
2023/05/23 11:10:59;;;;;;;8.60;2.50;;;19.70;99.70;;;;;;5071232;28;20304;-74
2023/05/23 11:13:58;;;;;;;8.73;2.67;;;20.00;99.40;;;;;;5071246;28;20207;-75
2023/05/23 11:16:28;;;;;;;12.30;3.70;;;20.30;99.30;;;;;;5071017;28;20265;-74
2023/05/23 11:19:18;;;;;;;9.47;2.87;;;20.10;99.70;;;;;;5070946;28;20584;-74
2023/05/23 11:22:07;;;;;;;8.83;3.00;;;19.90;99.50;;;;;;5070975;28;20187;-74
2023/05/23 11:24:53;;;;;;;12.70;3.90;;;19.70;99.90;;;;;;5070870;28;20606;-73
2023/05/23 11:27:36;;;;;;;10.17;3.30;;;19.80;99.10;;;;;;5070819;28;20251;-74
2023/05/23 11:30:08;;;;;;;7.37;3.00;;;19.90;99.30;;;;;;5071285;28;20187;-74
2023/05/23 11:32:35;;;;;;;9.10;2.97;;;20.20;98.90;;;;;;5072039;28;20170;-74
2023/05/23 11:35:06;;;;;;;9.13;3.13;;;20.30;98.90;;;;;;5072028;28;20221;-73
2023/05/23 11:37:32;;;;;;;9.93;2.80;;;20.60;98.10;;;;;;5070608;28;20178;-73
2023/05/23 11:39:59;;;;;;;10.17;3.00;;;20.60;97.40;;;;;;5072075;28;20164;-73
2023/05/23 11:42:24;;;;;;;11.10;3.50;;;21.00;97.30;;;;;;5072137;28;20585;-75
2023/05/23 11:44:52;;;;;;;15.80;3.30;;;20.80;97.50;;;;;;5072122;28;20168;-76
2023/05/23 11:47:19;;;;;;;14.73;3.90;;;20.30;98.00;;;;;;5074737;28;20224;-75
2023/05/23 11:49:45;;;;;;;15.33;3.87;;;20.20;97.40;;;;;;5074119;28;20185;-77
2023/05/23 11:52:12;;;;;;;10.60;3.17;;;20.10;97.70;;;;;;5075035;28;20522;-76
2023/05/23 11:54:42;;;;;;;13.23;3.17;;;20.00;98.10;;;;;;5074157;28;20203;-76
2023/05/23 11:57:12;;;;;;;11.07;3.43;;;20.10;97.70;;;;;;5075979;28;20149;-76
2023/05/23 11:59:38;;;;;;;14.60;3.73;;;19.90;97.80;;;;;;5074114;28;20178;-76
2023/05/23 12:02:06;;;;;;;12.50;3.13;;;20.60;97.10;;;;;;5075504;28;20659;-76
2023/05/23 12:04:35;;;;;;;12.07;4.00;;;20.90;96.10;;;;;;5073756;28;20175;-75
2023/05/23 12:07:03;;;;;;;11.73;3.23;;;20.80;96.00;;;;;;5075476;28;20190;-75
2023/05/23 12:09:29;;;;;;;9.57;2.83;;;20.60;96.10;;;;;;5075674;28;20229;-75
2023/05/23 12:11:55;;;;;;;13.77;3.40;;;20.60;96.10;;;;;;5075235;28;20163;-75
2023/05/23 12:14:20;;;;;;;10.30;3.30;;;20.80;95.80;;;;;;5074180;28;20748;-75
2023/05/23 12:16:46;;;;;;;13.73;3.23;;;20.80;95.00;;;;;;5075169;28;20209;-76
2023/05/23 12:19:13;;;;;;;12.87;3.23;;;21.20;95.10;;;;;;5074986;28;20195;-75
2023/05/23 12:21:44;;;;;;;16.03;3.80;;;21.20;94.20;;;;;;5073262;28;20164;-76
2023/05/23 12:24:20;;;;;;;13.80;3.80;;;20.80;95.20;;;;;;5074592;28;20183;-76
2023/05/23 12:26:50;;;;;;;16.13;3.70;;;20.10;95.40;;;;;;5074623;28;20528;-76
2023/05/23 12:29:29;;;;;;;14.60;3.50;;;20.10;95.80;;;;;;5073257;28;20270;-76
2023/05/23 12:31:56;;;;;;;10.07;2.90;;;21.10;95.30;;;;;;5072987;28;20171;-76
2023/05/23 12:34:22;;;;;;;13.87;3.40;;;21.80;93.20;;;;;;5074348;28;20198;-76
2023/05/23 12:36:48;;;;;;;12.03;2.97;;;22.20;92.60;;;;;;5074108;28;20156;-76
2023/05/23 12:39:15;;;;;;;13.10;3.20;;;22.00;92.00;;;;;;5075014;28;20250;-76